createdAt,value
2022-10-09T00:00:46.970Z,68.20
2022-10-09T00:03:17.169Z,65.59
2022-10-09T00:05:46.634Z,66.28
2022-10-09T00:08:14.371Z,65.81
2022-10-09T00:10:43.049Z,66.22
2022-10-09T00:13:10.970Z,65.98
2022-10-09T00:15:39.495Z,66.21
2022-10-09T00:18:07.538Z,66.35
2022-10-09T00:20:37.574Z,66.92
2022-10-09T00:23:07.129Z,66.35
2022-10-09T00:25:35.760Z,66.34
2022-10-09T00:28:05.301Z,66.09
2022-10-09T00:30:33.088Z,66.44
2022-10-09T00:33:00.718Z,66.52
2022-10-09T00:35:28.374Z,66.60
2022-10-09T00:37:55.995Z,66.83
2022-10-09T00:40:25.792Z,66.89
2022-10-09T00:42:57.118Z,66.92
2022-10-09T00:45:27.527Z,66.96
2022-10-09T00:47:58.585Z,66.48
2022-10-09T00:50:31.944Z,66.60
2022-10-09T00:53:01.197Z,67.04
2022-10-09T00:55:31.321Z,67.44
2022-10-09T00:58:01.153Z,67.49
2022-10-09T01:00:29.142Z,67.26
2022-10-09T01:02:56.814Z,67.39
2022-10-09T01:05:31.454Z,68.11
2022-10-09T01:08:08.330Z,67.52
2022-10-09T01:10:46.742Z,67.76
2022-10-09T01:13:23.936Z,68.07
2022-10-09T01:15:55.717Z,68.28
2022-10-09T01:18:28.918Z,67.87
2022-10-09T01:21:02.382Z,68.00
2022-10-09T01:23:42.622Z,67.91
2022-10-09T01:26:26.480Z,67.77
2022-10-09T01:28:58.647Z,67.99
2022-10-09T01:31:30.723Z,68.01
2022-10-09T01:34:00.676Z,68.06
2022-10-09T01:36:31.255Z,68.39
2022-10-09T01:39:01.833Z,67.96
2022-10-09T01:41:30.509Z,67.88
2022-10-09T01:43:59.513Z,68.94
2022-10-09T01:46:30.532Z,67.79
2022-10-09T01:49:11.166Z,68.35
2022-10-09T01:51:45.821Z,68.60
2022-10-09T01:54:15.893Z,68.05
2022-10-09T01:56:48.867Z,68.66
2022-10-09T01:59:19.828Z,68.85
2022-10-09T02:01:48.428Z,68.71
2022-10-09T02:04:18.022Z,68.60
2022-10-09T02:06:47.858Z,68.76
2022-10-09T02:09:18.145Z,69.13
2022-10-09T02:11:52.609Z,68.40
2022-10-09T02:14:21.784Z,68.73
2022-10-09T02:16:56.253Z,69.09
2022-10-09T02:19:28.015Z,69.31
2022-10-09T02:21:59.267Z,69.11
2022-10-09T02:24:27.198Z,69.13
2022-10-09T02:26:57.393Z,69.49
2022-10-09T02:29:26.864Z,69.28
2022-10-09T02:31:54.481Z,69.27
2022-10-09T02:34:22.571Z,68.95
2022-10-09T02:36:50.479Z,69.50
2022-10-09T02:39:18.490Z,68.85
2022-10-09T02:41:46.157Z,69.63
2022-10-09T02:44:13.786Z,69.29
2022-10-09T02:46:42.833Z,69.52
2022-10-09T02:49:10.572Z,69.30
2022-10-09T02:51:38.335Z,68.77
2022-10-09T02:54:06.347Z,69.31
2022-10-09T02:56:38.556Z,69.86
2022-10-09T02:59:06.804Z,69.89
2022-10-09T03:01:34.587Z,69.15
2022-10-09T03:04:03.850Z,69.07
2022-10-09T03:06:31.833Z,69.80
2022-10-09T03:08:59.554Z,68.98
2022-10-09T03:11:27.891Z,69.08
2022-10-09T03:13:55.645Z,69.00
2022-10-09T03:16:26.204Z,69.31
2022-10-09T03:18:54.899Z,69.54
2022-10-09T03:21:25.904Z,69.04
2022-10-09T03:23:54.303Z,69.24
2022-10-09T03:26:23.819Z,69.66
2022-10-09T03:28:53.571Z,69.38
2022-10-09T03:31:47.034Z,69.84
2022-10-09T03:34:11.644Z,69.81
2022-10-09T03:36:41.008Z,69.82
2022-10-09T03:39:09.013Z,69.69
2022-10-09T03:41:36.699Z,70.04
2022-10-09T03:44:04.522Z,69.57
2022-10-09T03:46:32.270Z,70.22
2022-10-09T03:48:59.987Z,70.25
2022-10-09T03:51:27.671Z,70.46
2022-10-09T03:53:56.710Z,70.65
2022-10-09T03:56:26.873Z,70.32
2022-10-09T03:58:54.505Z,70.50
2022-10-09T04:01:22.322Z,70.29
2022-10-09T04:03:50.041Z,70.32
2022-10-09T04:06:17.718Z,70.61
2022-10-09T04:08:45.338Z,70.36
2022-10-09T04:11:14.374Z,70.39
2022-10-09T04:13:42.059Z,69.91
2022-10-09T04:16:12.758Z,69.95
2022-10-09T04:18:40.917Z,69.83
2022-10-09T04:21:08.830Z,69.73
2022-10-09T04:23:36.876Z,69.95
2022-10-09T04:26:04.574Z,69.91
2022-10-09T04:28:33.741Z,70.17
2022-10-09T04:31:01.658Z,70.10
2022-10-09T04:33:29.442Z,69.59
2022-10-09T04:35:57.954Z,69.74
2022-10-09T04:38:26.494Z,70.05
2022-10-09T04:40:57.955Z,70.00
2022-10-09T04:43:25.953Z,70.44
2022-10-09T04:45:54.990Z,70.11
2022-10-09T04:48:23.319Z,70.13
2022-10-09T04:50:50.848Z,72.32
2022-10-09T04:53:18.757Z,70.80
2022-10-09T04:55:46.788Z,70.50
2022-10-09T04:58:15.209Z,70.45
2022-10-09T05:00:44.165Z,70.58
2022-10-09T05:03:13.532Z,70.53
2022-10-09T05:05:41.233Z,70.55
2022-10-09T05:08:08.920Z,70.60
2022-10-09T05:10:36.580Z,70.43
2022-10-09T05:13:04.229Z,70.63
2022-10-09T05:15:32.192Z,70.75
2022-10-09T05:17:59.934Z,70.72
2022-10-09T05:20:29.533Z,70.68
2022-10-09T05:22:57.162Z,70.62
2022-10-09T05:25:24.767Z,70.73
2022-10-09T05:27:52.889Z,70.66
2022-10-09T05:30:20.519Z,70.73
2022-10-09T05:32:48.346Z,70.54
2022-10-09T05:35:16.321Z,70.49
2022-10-09T05:37:46.559Z,71.03
2022-10-09T05:40:14.215Z,71.20
2022-10-09T05:42:41.918Z,71.00
2022-10-09T05:45:11.365Z,70.95
2022-10-09T05:47:39.150Z,70.77
2022-10-09T05:50:07.498Z,70.68
2022-10-09T05:52:36.156Z,73.21
2022-10-09T05:55:05.741Z,71.22
2022-10-09T05:57:33.481Z,70.69
2022-10-09T06:00:01.173Z,70.75
2022-10-09T06:02:28.801Z,70.92
2022-10-09T06:04:56.521Z,71.43
2022-10-09T06:07:24.137Z,71.25
2022-10-09T06:09:51.916Z,71.84
2022-10-09T06:12:20.907Z,71.74
2022-10-09T06:14:48.565Z,71.46
2022-10-09T06:17:16.261Z,71.51
2022-10-09T06:19:43.926Z,71.86
2022-10-09T06:22:11.594Z,71.39
2022-10-09T06:24:39.285Z,71.28
2022-10-09T06:27:06.965Z,71.67
2022-10-09T06:29:35.966Z,71.35
2022-10-09T06:32:03.569Z,71.65
2022-10-09T06:34:31.257Z,71.51
2022-10-09T06:36:58.933Z,71.74
2022-10-09T06:39:27.214Z,71.51
2022-10-09T06:41:54.701Z,73.80
2022-10-09T06:44:22.307Z,71.76
2022-10-09T06:46:51.332Z,71.39
2022-10-09T06:49:19.042Z,71.63
2022-10-09T06:51:46.733Z,71.53
2022-10-09T06:54:16.525Z,71.81
2022-10-09T06:56:44.530Z,71.64
2022-10-09T06:59:12.376Z,71.63
2022-10-09T07:01:40.107Z,72.05
2022-10-09T07:04:12.659Z,71.91
2022-10-09T07:07:34.156Z,72.29
2022-10-09T07:09:34.403Z,72.30
2022-10-09T07:12:02.035Z,72.42
2022-10-09T07:14:30.616Z,72.24
2022-10-09T07:16:58.350Z,72.25
2022-10-09T07:19:27.362Z,72.77
2022-10-09T07:21:55.033Z,72.98
2022-10-09T07:24:24.625Z,73.33
2022-10-09T07:26:53.478Z,73.87
2022-10-09T07:29:21.099Z,74.70
2022-10-09T07:31:49.840Z,73.92
2022-10-09T07:34:17.509Z,75.31
2022-10-09T07:36:46.513Z,75.97
2022-10-09T07:39:14.285Z,76.32
2022-10-09T07:41:42.121Z,76.71
2022-10-09T07:44:10.277Z,76.55
2022-10-09T07:46:37.969Z,77.18
2022-10-09T07:49:05.812Z,77.25
2022-10-09T07:51:33.791Z,77.05
2022-10-09T07:54:02.924Z,76.90
2022-10-09T07:56:32.747Z,76.41
2022-10-09T07:59:02.466Z,76.10
2022-10-09T08:01:31.464Z,75.60
2022-10-09T08:03:59.916Z,75.41
2022-10-09T08:06:28.207Z,75.24
2022-10-09T08:08:57.902Z,75.17
2022-10-09T08:11:28.942Z,75.21
2022-10-09T08:13:57.061Z,75.77
2022-10-09T08:16:25.851Z,76.37
2022-10-09T08:18:56.223Z,76.38
2022-10-09T08:21:23.962Z,76.75
2022-10-09T08:23:55.035Z,76.91
2022-10-09T08:26:24.416Z,76.76
2022-10-09T08:28:54.951Z,76.33
2022-10-09T08:31:23.785Z,76.21
2022-10-09T08:33:53.863Z,76.20
2022-10-09T08:36:21.954Z,75.95
2022-10-09T08:38:49.658Z,75.31
2022-10-09T08:41:27.094Z,75.76
2022-10-09T08:44:03.825Z,75.34
2022-10-09T08:46:42.424Z,75.22
2022-10-09T08:49:21.462Z,74.88
2022-10-09T08:51:49.636Z,74.23
2022-10-09T08:54:25.859Z,74.14
2022-10-09T08:56:54.005Z,73.85
2022-10-09T08:59:23.060Z,73.39
2022-10-09T09:02:01.862Z,73.06
2022-10-09T09:04:46.060Z,72.42
2022-10-09T09:07:25.432Z,71.87
2022-10-09T09:09:57.710Z,71.53
2022-10-09T09:12:34.948Z,71.15
2022-10-09T09:15:22.891Z,70.51
2022-10-09T09:17:56.322Z,69.95
2022-10-09T09:20:27.316Z,69.63
2022-10-09T09:22:58.931Z,69.21
2022-10-09T09:25:30.216Z,68.59
2022-10-09T09:28:03.410Z,68.09
2022-10-09T09:30:35.367Z,67.59
2022-10-09T09:33:14.052Z,67.05
2022-10-09T09:35:50.576Z,66.74
2022-10-09T09:38:18.313Z,66.38
2022-10-09T09:40:47.316Z,65.70
2022-10-09T09:43:19.182Z,64.76
2022-10-09T09:45:48.845Z,64.19
2022-10-09T09:48:22.175Z,63.47
2022-10-09T09:51:10.090Z,62.93
2022-10-09T09:53:44.610Z,62.76
2022-10-09T09:56:12.589Z,62.19
2022-10-09T09:58:41.858Z,61.69
2022-10-09T10:01:23.416Z,59.69
2022-10-09T10:03:53.579Z,60.73
2022-10-09T10:06:25.705Z,60.07
2022-10-09T10:09:01.908Z,58.50
2022-10-09T10:11:30.525Z,58.86
2022-10-09T10:13:58.557Z,58.54
2022-10-09T10:16:30.199Z,57.61
2022-10-09T10:18:59.197Z,57.68
2022-10-09T10:21:26.840Z,57.42
2022-10-09T10:23:57.624Z,52.84
2022-10-09T10:26:30.693Z,56.39
2022-10-09T10:29:02.845Z,55.71
2022-10-09T10:31:42.978Z,54.76
2022-10-09T10:34:17.887Z,53.55
2022-10-09T10:36:47.042Z,54.80
2022-10-09T10:39:25.176Z,53.95
2022-10-09T10:41:56.704Z,53.45
2022-10-09T10:44:32.329Z,53.30
2022-10-09T10:47:06.959Z,51.92
2022-10-09T10:49:34.631Z,51.65
2022-10-09T10:52:12.794Z,47.15
2022-10-09T10:54:43.983Z,51.28
2022-10-09T10:57:17.283Z,50.67
2022-10-09T10:59:57.885Z,48.88
2022-10-09T11:02:54.289Z,48.08
2022-10-09T11:05:34.352Z,48.31
2022-10-09T11:08:17.504Z,47.05
2022-10-09T11:10:57.417Z,47.09
2022-10-09T11:13:32.246Z,46.87
2022-10-09T11:16:16.790Z,45.17
2022-10-09T11:19:05.461Z,39.55
2022-10-09T11:21:45.535Z,44.54
2022-10-09T11:24:27.896Z,43.07
2022-10-09T11:27:03.612Z,44.31
2022-10-09T11:29:38.110Z,44.83
2022-10-09T11:32:10.318Z,40.18
2022-10-09T11:34:44.745Z,43.65
2022-10-09T11:37:18.857Z,42.53
2022-10-09T11:39:47.436Z,41.87
2022-10-09T11:42:21.166Z,41.17
2022-10-09T11:45:01.633Z,40.98
2022-10-09T11:47:35.511Z,40.50
2022-10-09T11:50:27.440Z,37.78
2022-10-09T11:53:00.885Z,38.63
2022-10-09T11:55:30.076Z,38.86
2022-10-09T11:58:09.218Z,36.49
2022-10-09T12:00:39.202Z,37.53
2022-10-09T12:03:08.926Z,36.74
2022-10-09T12:05:44.574Z,35.39
2022-10-09T12:08:18.531Z,35.82
2022-10-09T12:10:52.251Z,34.99
2022-10-09T12:13:40.954Z,33.56
2022-10-09T12:16:09.999Z,35.56
2022-10-09T12:18:41.543Z,35.61
2022-10-09T12:21:24.315Z,32.90
2022-10-09T12:23:53.197Z,35.36
2022-10-09T12:26:24.917Z,35.16
2022-10-09T12:28:55.982Z,34.57
2022-10-09T12:31:26.697Z,34.28
2022-10-09T12:33:58.070Z,35.25
2022-10-09T12:36:29.136Z,35.18
2022-10-09T12:38:56.802Z,35.46
2022-10-09T12:41:28.766Z,34.93
2022-10-09T12:43:58.400Z,35.70
2022-10-09T12:46:29.306Z,35.11
2022-10-09T12:48:58.314Z,34.62
2022-10-09T12:51:29.575Z,34.49
2022-10-09T12:53:57.564Z,33.97
2022-10-09T12:56:29.365Z,33.71
2022-10-09T12:58:58.556Z,33.11
2022-10-09T13:01:26.764Z,32.26
2022-10-09T13:03:57.407Z,31.89
2022-10-09T13:06:28.764Z,33.25
2022-10-09T13:08:59.090Z,32.77
2022-10-09T13:11:35.409Z,31.83
2022-10-09T13:14:03.277Z,31.72
2022-10-09T13:16:41.405Z,30.33
2022-10-09T13:19:22.880Z,30.69
2022-10-09T13:22:18.996Z,30.98
2022-10-09T13:24:47.161Z,33.01
2022-10-09T13:27:15.578Z,33.17
2022-10-09T13:29:44.024Z,33.28
2022-10-09T13:32:13.969Z,33.67
2022-10-09T13:34:41.926Z,33.76
2022-10-09T13:37:13.997Z,33.21
2022-10-09T13:39:41.778Z,34.38
2022-10-09T13:42:13.242Z,34.45
2022-10-09T13:44:40.971Z,34.71
2022-10-09T13:47:08.589Z,34.59
2022-10-09T13:49:36.218Z,34.45
2022-10-09T13:52:03.970Z,34.47
2022-10-09T13:54:32.996Z,34.77
2022-10-09T13:57:00.731Z,34.89
2022-10-09T13:59:28.565Z,34.80
2022-10-09T14:01:56.287Z,34.49
2022-10-09T14:04:23.987Z,34.83
2022-10-09T14:06:51.677Z,34.98
2022-10-09T14:09:19.566Z,34.63
2022-10-09T14:11:48.780Z,35.30
2022-10-09T14:14:16.461Z,35.75
2022-10-09T14:16:44.115Z,36.41
2022-10-09T14:19:11.786Z,36.50
2022-10-09T14:21:39.497Z,36.45
2022-10-09T14:24:07.566Z,36.45
2022-10-09T14:26:35.268Z,36.31
2022-10-09T14:29:04.506Z,36.26
2022-10-09T14:31:32.153Z,36.53
2022-10-09T14:34:00.465Z,36.49
2022-10-09T14:36:29.054Z,36.70
2022-10-09T14:38:56.991Z,37.11
2022-10-09T14:41:24.694Z,36.64
2022-10-09T14:43:56.805Z,36.78
2022-10-09T14:46:27.694Z,37.00
2022-10-09T14:48:57.785Z,37.31
2022-10-09T14:51:27.116Z,37.76
2022-10-09T14:53:57.905Z,37.35
2022-10-09T14:56:26.841Z,37.65
2022-10-09T14:58:55.092Z,38.05
2022-10-09T15:01:25.070Z,37.47
2022-10-09T15:03:53.330Z,37.57
2022-10-09T15:06:24.072Z,38.09
2022-10-09T15:08:54.979Z,37.61
2022-10-09T15:11:22.651Z,38.36
2022-10-09T15:13:50.419Z,38.81
2022-10-09T15:16:19.629Z,39.28
2022-10-09T15:18:51.937Z,39.08
2022-10-09T15:21:22.382Z,39.35
2022-10-09T15:23:50.966Z,38.95
2022-10-09T15:26:18.826Z,38.89
2022-10-09T15:28:46.509Z,38.69
2022-10-09T15:31:22.074Z,38.39
2022-10-09T15:33:52.232Z,38.61
2022-10-09T15:36:20.078Z,39.07
2022-10-09T15:38:48.159Z,39.24
2022-10-09T15:41:24.727Z,38.83
2022-10-09T15:43:54.393Z,39.52
2022-10-09T15:46:22.133Z,39.35
2022-10-09T15:48:51.452Z,39.64
2022-10-09T15:51:20.129Z,39.89
2022-10-09T15:53:50.579Z,39.75
2022-10-09T15:56:21.086Z,39.96
2022-10-09T15:58:48.864Z,39.75
2022-10-09T16:01:18.264Z,40.13
2022-10-09T16:03:46.194Z,40.11
2022-10-09T16:06:18.002Z,40.55
2022-10-09T16:08:46.209Z,40.51
2022-10-09T16:11:17.883Z,40.89
2022-10-09T16:13:48.188Z,40.96
2022-10-09T16:16:17.551Z,41.09
2022-10-09T16:18:45.615Z,41.21
2022-10-09T16:21:18.026Z,41.44
2022-10-09T16:23:46.726Z,41.42
2022-10-09T16:26:18.386Z,41.77
2022-10-09T16:28:46.385Z,41.75
2022-10-09T16:31:19.532Z,41.63
2022-10-09T16:33:47.260Z,42.42
2022-10-09T16:36:16.594Z,42.27
2022-10-09T16:38:44.402Z,42.62
2022-10-09T16:41:14.762Z,42.61
2022-10-09T16:43:42.413Z,43.08
2022-10-09T16:46:12.195Z,42.82
2022-10-09T16:48:39.886Z,42.99
2022-10-09T16:51:12.418Z,43.18
2022-10-09T16:53:41.952Z,43.25
2022-10-09T16:56:11.781Z,43.48
2022-10-09T16:58:40.061Z,43.70
2022-10-09T17:01:10.186Z,43.83
2022-10-09T17:03:40.263Z,43.95
2022-10-09T17:06:09.991Z,44.37
2022-10-09T17:08:37.685Z,44.24
2022-10-09T17:11:09.093Z,44.06
2022-10-09T17:13:37.478Z,44.50
2022-10-09T17:16:07.071Z,44.68
2022-10-09T17:18:35.280Z,45.03
2022-10-09T17:21:04.005Z,45.14
2022-10-09T17:23:31.843Z,45.41
2022-10-09T17:25:59.954Z,45.52
2022-10-09T17:28:29.005Z,45.67
2022-10-09T17:30:57.317Z,45.80
2022-10-09T17:33:24.940Z,45.86
2022-10-09T17:35:52.445Z,46.07
2022-10-09T17:38:20.066Z,46.17
2022-10-09T17:40:47.566Z,46.26
2022-10-09T17:43:15.237Z,46.39
2022-10-09T17:45:46.789Z,46.60
2022-10-09T17:48:17.474Z,46.59
2022-10-09T17:50:51.843Z,46.62
2022-10-09T17:53:20.074Z,46.84
2022-10-09T17:55:47.715Z,46.76
2022-10-09T17:58:15.404Z,46.93
2022-10-09T18:00:44.287Z,47.34
2022-10-09T18:03:12.015Z,47.13
2022-10-09T18:05:41.446Z,48.14
2022-10-09T18:08:09.129Z,47.58
2022-10-09T18:10:37.297Z,48.28
2022-10-09T18:13:05.389Z,47.86
2022-10-09T18:15:33.215Z,48.04
2022-10-09T18:18:02.249Z,48.67
2022-10-09T18:20:30.611Z,48.63
2022-10-09T18:22:58.221Z,48.75
2022-10-09T18:25:25.883Z,48.66
2022-10-09T18:27:53.569Z,49.24
2022-10-09T18:30:21.085Z,49.87
2022-10-09T18:32:49.441Z,49.11
2022-10-09T18:35:18.705Z,49.44
2022-10-09T18:37:46.401Z,49.23
2022-10-09T18:40:14.408Z,49.34
2022-10-09T18:42:42.037Z,49.62
2022-10-09T18:45:10.963Z,49.94
2022-10-09T18:47:38.714Z,50.08
2022-10-09T18:50:08.661Z,51.19
2022-10-09T18:52:38.783Z,50.02
2022-10-09T18:55:08.618Z,50.21
2022-10-09T18:57:36.742Z,50.19
2022-10-09T19:00:06.103Z,50.16
2022-10-09T19:02:33.820Z,50.19
2022-10-09T19:05:01.436Z,50.41
2022-10-09T19:07:29.445Z,50.46
2022-10-09T19:09:58.405Z,50.59
2022-10-09T19:12:26.532Z,50.63
2022-10-09T19:14:54.181Z,50.80
2022-10-09T19:17:21.845Z,50.95
2022-10-09T19:19:49.719Z,51.24
2022-10-09T19:22:21.348Z,51.13
2022-10-09T19:24:51.333Z,51.38
2022-10-09T19:27:24.473Z,51.62
2022-10-09T19:29:54.146Z,51.73
2022-10-09T19:32:23.878Z,51.88
2022-10-09T19:34:51.886Z,51.95
2022-10-09T19:37:19.456Z,53.56
2022-10-09T19:39:49.157Z,52.18
2022-10-09T19:42:16.843Z,52.20
2022-10-09T19:44:47.440Z,52.42
2022-10-09T19:47:18.125Z,52.66
2022-10-09T19:49:45.796Z,52.62
2022-10-09T19:52:13.508Z,52.49
2022-10-09T19:54:41.171Z,52.60
2022-10-09T19:57:08.796Z,52.92
2022-10-09T19:59:36.483Z,53.01
2022-10-09T20:02:07.781Z,53.00
2022-10-09T20:04:35.541Z,53.25
2022-10-09T20:07:03.192Z,53.43
2022-10-09T20:09:30.905Z,53.45
2022-10-09T20:11:58.520Z,53.71
2022-10-09T20:14:26.171Z,53.97
2022-10-09T20:16:53.819Z,54.12
2022-10-09T20:19:24.853Z,54.13
2022-10-09T20:21:52.498Z,54.19
2022-10-09T20:24:20.438Z,54.43
2022-10-09T20:26:48.219Z,54.67
2022-10-09T20:29:15.961Z,55.00
2022-10-09T20:31:43.777Z,54.93
2022-10-09T20:34:11.409Z,55.22
2022-10-09T20:36:40.404Z,55.32
2022-10-09T20:39:10.468Z,55.36
2022-10-09T20:41:39.228Z,55.40
2022-10-09T20:44:07.482Z,55.64
2022-10-09T20:46:37.904Z,55.58
2022-10-09T20:49:07.240Z,55.70
2022-10-09T20:51:35.827Z,55.55
2022-10-09T20:54:05.984Z,55.97
2022-10-09T20:56:34.276Z,56.10
2022-10-09T20:59:02.566Z,56.34
2022-10-09T21:01:30.544Z,56.28
2022-10-09T21:03:58.993Z,57.93
2022-10-09T21:06:27.635Z,56.47
2022-10-09T21:08:55.413Z,56.80
2022-10-09T21:11:25.131Z,56.73
2022-10-09T21:13:53.255Z,56.85
2022-10-09T21:16:23.413Z,56.64
2022-10-09T21:18:54.907Z,56.82
2022-10-09T21:21:22.562Z,56.87
2022-10-09T21:23:51.901Z,56.85
2022-10-09T21:26:21.550Z,56.57
2022-10-09T21:28:55.450Z,56.66
2022-10-09T21:31:28.518Z,56.63
2022-10-09T21:33:57.291Z,56.99
2022-10-09T21:36:33.353Z,56.79
2022-10-09T21:39:01.079Z,57.20
2022-10-09T21:41:28.816Z,56.80
2022-10-09T21:43:57.813Z,56.92
2022-10-09T21:46:26.115Z,56.90
2022-10-09T21:48:53.795Z,57.16
2022-10-09T21:51:21.609Z,57.34
2022-10-09T21:53:50.328Z,57.72
2022-10-09T21:56:18.210Z,57.27
2022-10-09T21:58:48.958Z,57.27
2022-10-09T22:01:18.533Z,57.46
2022-10-09T22:03:46.776Z,57.55
2022-10-09T22:06:19.093Z,57.58
2022-10-09T22:08:47.862Z,57.74
2022-10-09T22:11:16.226Z,57.92
2022-10-09T22:13:44.365Z,57.42
2022-10-09T22:16:14.143Z,57.49
2022-10-09T22:18:43.445Z,57.68
2022-10-09T22:21:13.391Z,57.53
2022-10-09T22:23:41.870Z,57.80
2022-10-09T22:26:13.282Z,57.85
2022-10-09T22:28:40.940Z,57.99
2022-10-09T22:31:11.914Z,57.92
2022-10-09T22:33:40.026Z,57.91
2022-10-09T22:36:11.566Z,58.17
2022-10-09T22:38:40.482Z,58.11
2022-10-09T22:41:10.580Z,58.09
2022-10-09T22:43:39.410Z,58.46
2022-10-09T22:46:09.322Z,58.17
2022-10-09T22:48:37.162Z,58.45
2022-10-09T22:51:06.279Z,58.26
2022-10-09T22:53:36.504Z,58.42
2022-10-09T22:56:05.387Z,58.18
2022-10-09T22:58:33.250Z,58.30
2022-10-09T23:01:03.838Z,58.49
2022-10-09T23:03:31.493Z,58.51
2022-10-09T23:06:07.022Z,59.10
2022-10-09T23:08:35.985Z,59.04
2022-10-09T23:11:03.634Z,58.79
2022-10-09T23:13:31.249Z,59.01
2022-10-09T23:16:00.672Z,59.00
2022-10-09T23:18:28.758Z,59.29
2022-10-09T23:20:56.195Z,61.39
2022-10-09T23:23:24.041Z,59.36
2022-10-09T23:25:53.006Z,59.43
2022-10-09T23:28:21.654Z,59.46
2022-10-09T23:30:49.625Z,59.58
2022-10-09T23:33:17.257Z,59.81
2022-10-09T23:35:45.084Z,59.95
2022-10-09T23:38:12.803Z,60.06
2022-10-09T23:40:40.437Z,60.19
2022-10-09T23:43:09.440Z,60.09
2022-10-09T23:45:41.276Z,60.34
2022-10-09T23:48:08.887Z,60.50
2022-10-09T23:50:36.517Z,60.58
2022-10-09T23:53:04.274Z,60.49
2022-10-09T23:55:31.916Z,60.75
2022-10-09T23:57:59.585Z,60.72
